createdAt,value
2022-08-01T00:00:26.683Z,0.00
2022-08-01T00:01:26.917Z,0.00
2022-08-01T00:02:27.181Z,0.00
2022-08-01T00:03:27.403Z,0.00
2022-08-01T00:04:27.617Z,0.00
2022-08-01T00:05:27.837Z,0.00
2022-08-01T00:06:28.074Z,0.00
2022-08-01T00:07:28.293Z,0.00
2022-08-01T00:08:28.517Z,0.00
2022-08-01T00:09:28.732Z,0.00
2022-08-01T00:10:28.952Z,0.00
2022-08-01T00:11:29.195Z,0.00
2022-08-01T00:12:29.410Z,0.00
2022-08-01T00:13:29.629Z,0.00
2022-08-01T00:14:32.642Z,0.00
2022-08-01T00:15:30.131Z,0.00
2022-08-01T00:16:30.354Z,0.00
2022-08-01T00:17:30.584Z,0.00
2022-08-01T00:18:30.799Z,0.00
2022-08-01T00:19:31.023Z,0.00
2022-08-01T00:20:31.240Z,0.00
2022-08-01T00:21:31.481Z,0.00
2022-08-01T00:22:31.704Z,0.00
2022-08-01T00:23:31.930Z,0.00
2022-08-01T00:24:32.155Z,0.00
2022-08-01T00:25:33.813Z,0.00
2022-08-01T00:26:32.628Z,0.00
2022-08-01T00:27:32.842Z,0.00
2022-08-01T00:28:33.109Z,0.00
2022-08-01T00:30:12.645Z,0.00
2022-08-01T00:30:34.509Z,0.00
2022-08-01T00:31:33.739Z,0.00
2022-08-01T00:32:33.965Z,0.00
2022-08-01T00:33:34.188Z,0.00
2022-08-01T00:34:34.399Z,0.00
2022-08-01T00:35:34.613Z,0.00
2022-08-01T00:36:34.854Z,0.00
2022-08-01T00:37:35.069Z,0.00
2022-08-01T00:38:35.289Z,0.00
2022-08-01T00:39:35.503Z,0.00
2022-08-01T00:40:35.740Z,0.00
2022-08-01T00:41:35.983Z,0.00
2022-08-01T00:42:40.276Z,0.00
2022-08-01T00:43:37.365Z,0.00
2022-08-01T00:44:36.579Z,0.00
2022-08-01T00:45:36.799Z,0.00
2022-08-01T00:46:37.058Z,0.00
2022-08-01T00:47:37.183Z,0.00
2022-08-01T00:48:37.397Z,0.00
2022-08-01T00:49:37.664Z,0.00
2022-08-01T00:50:37.803Z,0.00
2022-08-01T00:51:38.040Z,0.00
2022-08-01T00:52:38.253Z,0.00
2022-08-01T00:53:51.040Z,0.00
2022-08-01T00:54:39.748Z,0.00
2022-08-01T00:55:38.964Z,0.00
2022-08-01T00:56:39.207Z,0.00
2022-08-01T00:57:41.475Z,0.00
2022-08-01T00:58:40.699Z,0.00
2022-08-01T00:59:41.332Z,0.00
2022-08-01T01:00:52.915Z,0.00
2022-08-01T01:01:46.726Z,0.00
2022-08-01T01:02:41.465Z,0.00
2022-08-01T01:03:58.006Z,0.00
2022-08-01T01:04:41.967Z,0.00
2022-08-01T01:05:41.173Z,0.00
2022-08-01T01:06:41.411Z,0.00
2022-08-01T01:07:49.632Z,0.00
2022-08-01T01:08:42.945Z,0.00
2022-08-01T01:09:42.161Z,0.00
2022-08-01T01:10:42.394Z,0.00
2022-08-01T01:11:42.678Z,0.00
2022-08-01T01:12:45.814Z,0.00
2022-08-01T01:13:50.644Z,0.00
2022-08-01T01:14:44.375Z,0.00
2022-08-01T01:15:43.592Z,0.00
2022-08-01T01:16:43.841Z,0.00
2022-08-01T01:17:51.390Z,0.00
2022-08-01T01:18:45.334Z,0.00
2022-08-01T01:19:44.585Z,0.00
2022-08-01T01:20:44.806Z,0.00
2022-08-01T01:21:45.043Z,0.00
2022-08-01T01:22:45.265Z,0.00
2022-08-01T01:23:45.487Z,0.00
2022-08-01T01:24:45.711Z,0.00
2022-08-01T01:25:45.929Z,0.00
2022-08-01T01:26:46.166Z,0.00
2022-08-01T01:27:46.391Z,0.00
2022-08-01T01:28:46.612Z,0.00
2022-08-01T01:29:59.675Z,0.00
2022-08-01T01:30:48.132Z,0.00
2022-08-01T01:31:47.372Z,0.00
2022-08-01T01:32:47.601Z,0.00
2022-08-01T01:33:47.822Z,0.00
2022-08-01T01:34:48.057Z,0.00
2022-08-01T01:35:48.243Z,0.00
2022-08-01T01:36:48.500Z,0.00
2022-08-01T01:37:48.725Z,0.00
2022-08-01T01:38:48.952Z,0.00
2022-08-01T01:39:54.226Z,0.00
2022-08-01T01:40:50.478Z,0.00
2022-08-01T01:41:49.696Z,0.00
2022-08-01T01:42:49.921Z,0.00
2022-08-01T01:43:50.147Z,0.00
2022-08-01T01:44:50.373Z,0.00
2022-08-01T01:45:50.590Z,0.00
2022-08-01T01:46:50.798Z,0.00
2022-08-01T01:47:51.016Z,0.00
2022-08-01T01:48:51.314Z,0.00
2022-08-01T01:49:51.532Z,0.00
2022-08-01T01:50:51.757Z,0.00
2022-08-01T01:52:01.995Z,0.00
2022-08-01T01:52:53.176Z,0.00
2022-08-01T01:53:52.392Z,0.00
2022-08-01T01:54:52.606Z,0.00
2022-08-01T01:55:52.827Z,0.00
2022-08-01T01:56:53.061Z,0.00
2022-08-01T01:57:53.284Z,0.00
2022-08-01T01:58:53.515Z,0.00
2022-08-01T01:59:53.754Z,0.00
2022-08-01T02:00:53.986Z,0.00
2022-08-01T02:02:03.700Z,0.00
2022-08-01T02:02:55.492Z,0.00
2022-08-01T02:03:54.587Z,0.00
2022-08-01T02:04:54.832Z,0.00
2022-08-01T02:05:55.051Z,0.00
2022-08-01T02:06:55.297Z,0.00
2022-08-01T02:07:59.394Z,0.00
2022-08-01T02:08:55.736Z,0.00
2022-08-01T02:09:55.966Z,0.00
2022-08-01T02:10:56.221Z,0.00
2022-08-01T02:12:07.957Z,0.00
2022-08-01T02:12:57.648Z,0.00
2022-08-01T02:13:56.875Z,0.00
2022-08-01T02:14:57.110Z,0.00
2022-08-01T02:16:00.265Z,0.00
2022-08-01T02:16:57.609Z,0.00
2022-08-01T02:17:57.853Z,0.00
2022-08-01T02:18:58.081Z,0.00
2022-08-01T02:19:58.335Z,0.00
2022-08-01T02:20:58.590Z,0.00
2022-08-01T02:21:58.831Z,0.00
2022-08-01T02:22:59.073Z,0.00
2022-08-01T02:24:02.743Z,0.00
2022-08-01T02:25:00.607Z,0.00
2022-08-01T02:26:09.596Z,0.00
2022-08-01T02:27:01.041Z,0.00
2022-08-01T02:28:00.280Z,0.00
2022-08-01T02:29:00.518Z,0.00
2022-08-01T02:30:00.745Z,0.00
2022-08-01T02:31:00.984Z,0.00
2022-08-01T02:32:01.231Z,0.00
2022-08-01T02:33:01.487Z,0.00
2022-08-01T02:34:01.719Z,0.00
2022-08-01T02:35:01.961Z,0.00
2022-08-01T02:36:30.027Z,0.00
2022-08-01T02:37:03.513Z,0.00
2022-08-01T02:38:02.753Z,0.00
2022-08-01T02:39:02.985Z,0.00
2022-08-01T02:40:03.220Z,0.00
2022-08-01T02:41:03.456Z,0.00
2022-08-01T02:42:04.017Z,0.00
2022-08-01T02:43:03.928Z,0.00
2022-08-01T02:44:04.171Z,0.00
2022-08-01T02:45:04.410Z,0.00
2022-08-01T02:46:04.638Z,0.00
2022-08-01T02:47:04.907Z,0.00
2022-08-01T02:48:05.141Z,0.00
2022-08-01T02:49:05.416Z,0.00
2022-08-01T02:50:05.589Z,0.00
2022-08-01T02:51:05.847Z,0.00
2022-08-01T02:52:06.402Z,0.00
2022-08-01T02:53:06.371Z,4.00
2022-08-01T02:54:06.608Z,4.00
2022-08-01T02:55:06.842Z,4.00
2022-08-01T02:56:07.067Z,0.00
2022-08-01T02:57:07.312Z,4.00
2022-08-01T02:58:10.994Z,4.00
2022-08-01T02:59:07.823Z,4.00
2022-08-01T03:00:08.053Z,4.00
2022-08-01T03:01:08.332Z,8.00
2022-08-01T03:02:09.016Z,8.00
2022-08-01T03:03:08.797Z,8.00
2022-08-01T03:04:09.037Z,12.00
2022-08-01T03:05:09.279Z,12.00
2022-08-01T03:06:09.502Z,12.00
2022-08-01T03:07:09.758Z,16.00
2022-08-01T03:08:11.912Z,20.00
2022-08-01T03:09:10.199Z,20.00
2022-08-01T03:10:10.414Z,24.00
2022-08-01T03:11:10.651Z,28.00
2022-08-01T03:12:10.907Z,32.00
2022-08-01T03:13:11.151Z,36.00
2022-08-01T03:14:11.387Z,40.00
2022-08-01T03:15:11.621Z,44.00
2022-08-01T03:16:11.854Z,48.00
2022-08-01T03:17:12.140Z,52.00
2022-08-01T03:18:12.372Z,60.00
2022-08-01T03:19:12.613Z,68.00
2022-08-01T03:20:12.846Z,72.00
2022-08-01T03:21:13.095Z,80.00
2022-08-01T03:22:13.336Z,88.00
2022-08-01T03:23:13.602Z,96.00
2022-08-01T03:24:13.829Z,104.00
2022-08-01T03:25:21.086Z,116.00
2022-08-01T03:26:14.314Z,132.00
2022-08-01T03:27:14.587Z,140.00
2022-08-01T03:28:14.830Z,148.00
2022-08-01T03:29:15.073Z,164.00
2022-08-01T03:30:15.303Z,176.00
2022-08-01T03:31:15.543Z,192.00
2022-08-01T03:32:15.790Z,196.00
2022-08-01T03:33:16.035Z,200.00
2022-08-01T03:34:16.277Z,208.00
2022-08-01T03:35:16.525Z,208.00
2022-08-01T03:36:16.765Z,212.00
2022-08-01T03:37:17.008Z,224.00
2022-08-01T03:38:17.262Z,232.00
2022-08-01T03:39:17.487Z,240.00
2022-08-01T03:40:17.721Z,264.00
2022-08-01T03:41:18.014Z,292.00
2022-08-01T03:42:18.280Z,320.00
2022-08-01T03:43:23.084Z,344.00
2022-08-01T03:44:18.743Z,356.00
2022-08-01T03:45:18.985Z,352.00
2022-08-01T03:46:19.212Z,336.00
2022-08-01T03:47:19.465Z,312.00
2022-08-01T03:48:19.642Z,316.00
2022-08-01T03:49:19.956Z,344.00
2022-08-01T03:50:20.141Z,408.00
2022-08-01T03:51:20.380Z,484.00
2022-08-01T03:52:20.662Z,544.00
2022-08-01T03:53:21.016Z,600.00
2022-08-01T03:54:21.151Z,624.00
2022-08-01T03:55:21.380Z,620.00
2022-08-01T03:56:21.626Z,584.00
2022-08-01T03:57:35.721Z,532.00
2022-08-01T03:58:23.062Z,480.00
2022-08-01T03:59:22.286Z,408.00
2022-08-01T04:00:22.521Z,352.00
2022-08-01T04:01:22.798Z,380.00
2022-08-01T04:02:23.025Z,408.00
2022-08-01T04:03:23.270Z,384.00
2022-08-01T04:04:23.500Z,416.00
2022-08-01T04:05:23.740Z,556.00
2022-08-01T04:06:23.981Z,676.00
2022-08-01T04:07:24.231Z,732.00
2022-08-01T04:08:30.048Z,768.00
2022-08-01T04:09:25.777Z,776.00
2022-08-01T04:10:25.002Z,820.00
2022-08-01T04:11:25.238Z,800.00
2022-08-01T04:12:25.487Z,724.00
2022-08-01T04:13:25.732Z,672.00
2022-08-01T04:14:25.935Z,648.00
2022-08-01T04:15:26.164Z,636.00
2022-08-01T04:16:26.459Z,596.00
2022-08-01T04:17:26.709Z,572.00
2022-08-01T04:18:26.944Z,528.00
2022-08-01T04:19:27.170Z,552.00
2022-08-01T04:20:27.399Z,532.00
2022-08-01T04:21:27.627Z,596.00
2022-08-01T04:22:27.865Z,616.00
2022-08-01T04:23:28.092Z,668.00
2022-08-01T04:24:28.316Z,656.00
2022-08-01T04:25:29.522Z,540.00
2022-08-01T04:26:28.759Z,528.00
2022-08-01T04:27:50.884Z,584.00
2022-08-01T04:28:30.202Z,656.00
2022-08-01T04:29:29.431Z,708.00
2022-08-01T04:30:29.668Z,812.00
2022-08-01T04:31:29.900Z,996.00
2022-08-01T04:32:30.100Z,984.00
2022-08-01T04:33:30.339Z,1020.00
2022-08-01T04:34:30.575Z,1192.00
2022-08-01T04:36:01.417Z,1276.00
2022-08-01T04:36:32.116Z,1224.00
2022-08-01T04:37:31.361Z,1092.00
2022-08-01T04:38:31.588Z,940.00
2022-08-01T04:39:31.808Z,944.00
2022-08-01T04:40:32.050Z,936.00
2022-08-01T04:41:32.272Z,876.00
2022-08-01T04:42:33.480Z,836.00
2022-08-01T04:43:32.962Z,724.00
2022-08-01T04:44:33.044Z,676.00
2022-08-01T04:45:33.289Z,592.00
2022-08-01T04:46:33.534Z,668.00
2022-08-01T04:47:33.778Z,684.00
2022-08-01T04:48:34.024Z,752.00
2022-08-01T04:49:48.930Z,860.00
2022-08-01T04:50:35.471Z,840.00
2022-08-01T04:51:34.698Z,876.00
2022-08-01T04:52:34.947Z,912.00
2022-08-01T04:53:35.176Z,960.00
2022-08-01T04:54:35.417Z,948.00
2022-08-01T04:55:35.658Z,1012.00
2022-08-01T04:56:35.839Z,988.00
2022-08-01T04:57:36.085Z,996.00
2022-08-01T04:58:36.318Z,956.00
2022-08-01T04:59:36.542Z,976.00
2022-08-01T05:00:36.757Z,960.00
2022-08-01T05:01:37.101Z,940.00
2022-08-01T05:02:37.271Z,912.00
2022-08-01T05:03:39.192Z,916.00
2022-08-01T05:04:37.726Z,868.00
2022-08-01T05:05:37.949Z,864.00
2022-08-01T05:06:38.180Z,952.00
2022-08-01T05:07:44.885Z,1044.00
2022-08-01T05:08:39.609Z,1076.00
2022-08-01T05:09:38.830Z,1168.00
2022-08-01T05:10:39.066Z,1332.00
2022-08-01T05:11:39.287Z,1288.00
2022-08-01T05:12:39.538Z,1276.00
2022-08-01T05:13:39.767Z,1288.00
2022-08-01T05:14:39.995Z,1108.00
2022-08-01T05:15:40.231Z,1100.00
2022-08-01T05:16:40.456Z,1108.00
2022-08-01T05:17:40.701Z,1304.00
2022-08-01T05:18:40.930Z,1480.00
2022-08-01T05:19:41.164Z,1492.00
2022-08-01T05:20:41.398Z,1668.00
2022-08-01T05:21:41.627Z,1912.00
2022-08-01T05:22:41.880Z,1736.00
2022-08-01T05:23:43.579Z,1768.00
2022-08-01T05:24:43.411Z,1836.00
2022-08-01T05:25:57.212Z,2012.00
2022-08-01T05:26:43.790Z,2112.00
2022-08-01T05:27:42.994Z,2164.00
2022-08-01T05:28:43.223Z,1944.00
2022-08-01T05:29:44.772Z,1940.00
2022-08-01T05:30:43.665Z,2076.00
2022-08-01T05:31:43.881Z,2004.00
2022-08-01T05:32:44.130Z,2332.00
2022-08-01T05:33:44.366Z,2484.00
2022-08-01T05:34:44.597Z,2796.00
2022-08-01T05:35:47.757Z,2912.00
2022-08-01T05:36:45.114Z,3224.00
2022-08-01T05:37:45.358Z,3584.00
2022-08-01T05:38:45.582Z,3512.00
2022-08-01T05:39:45.800Z,3740.00
2022-08-01T05:40:46.026Z,3984.00
2022-08-01T05:41:46.255Z,4348.00
2022-08-01T05:42:46.495Z,4508.00
2022-08-01T05:43:46.736Z,3824.00
2022-08-01T05:44:48.935Z,3792.00
2022-08-01T05:45:47.176Z,4212.00
2022-08-01T05:46:47.379Z,3872.00
2022-08-01T05:47:47.650Z,3500.00
2022-08-01T05:48:47.932Z,3168.00
2022-08-01T05:49:48.077Z,2724.00
2022-08-01T05:50:48.311Z,3048.00
2022-08-01T05:51:48.534Z,3516.00
2022-08-01T05:52:48.780Z,4760.00
2022-08-01T05:53:48.999Z,6136.00
2022-08-01T05:54:49.234Z,5780.00
2022-08-01T05:55:49.456Z,4760.00
2022-08-01T05:56:49.687Z,3892.00
2022-08-01T05:57:49.874Z,3152.00
2022-08-01T05:58:50.093Z,3220.00
2022-08-01T05:59:50.301Z,2888.00
2022-08-01T06:00:50.522Z,3152.00
2022-08-01T06:01:50.816Z,3348.00
2022-08-01T06:02:51.054Z,3204.00
2022-08-01T06:03:51.275Z,3240.00
2022-08-01T06:04:51.500Z,3536.00
2022-08-01T06:05:51.742Z,3780.00
2022-08-01T06:06:51.971Z,4120.00
2022-08-01T06:07:52.212Z,3632.00
2022-08-01T06:08:52.443Z,3732.00
2022-08-01T06:09:52.676Z,3404.00
2022-08-01T06:10:52.903Z,4176.00
2022-08-01T06:11:53.123Z,4424.00
2022-08-01T06:12:53.376Z,3708.00
2022-08-01T06:13:53.612Z,2980.00
2022-08-01T06:14:53.854Z,2828.00
2022-08-01T06:15:54.091Z,2444.00
2022-08-01T06:16:54.313Z,2140.00
2022-08-01T06:17:54.554Z,2504.00
2022-08-01T06:18:56.720Z,3080.00
2022-08-01T06:19:55.052Z,3124.00
2022-08-01T06:20:55.284Z,2592.00
2022-08-01T06:21:55.505Z,2528.00
2022-08-01T06:22:55.756Z,1908.00
2022-08-01T06:23:55.975Z,1864.00
2022-08-01T06:24:56.204Z,2080.00
2022-08-01T06:25:56.428Z,2572.00
2022-08-01T06:26:56.655Z,2516.00
2022-08-01T06:28:00.862Z,2460.00
2022-08-01T06:28:57.062Z,2080.00
2022-08-01T06:29:57.280Z,2268.00
2022-08-01T06:30:57.501Z,2556.00
2022-08-01T06:31:57.735Z,2904.00
2022-08-01T06:32:57.980Z,3428.00
2022-08-01T06:33:58.213Z,3500.00
2022-08-01T06:34:58.444Z,3852.00
2022-08-01T06:35:58.674Z,3988.00
2022-08-01T06:36:58.895Z,3508.00
2022-08-01T06:37:59.142Z,3376.00
2022-08-01T06:38:59.368Z,3776.00
2022-08-01T06:39:59.611Z,3616.00
2022-08-01T06:40:59.828Z,3976.00
2022-08-01T06:42:00.061Z,4972.00
2022-08-01T06:43:00.313Z,7412.00
2022-08-01T06:44:00.543Z,9892.00
2022-08-01T06:45:00.770Z,8264.00
2022-08-01T06:46:01.002Z,7652.00
2022-08-01T06:47:01.231Z,9272.00
2022-08-01T06:48:01.473Z,10356.00
2022-08-01T06:49:01.796Z,10532.00
2022-08-01T06:50:01.912Z,10160.00
2022-08-01T06:51:02.144Z,10984.00
2022-08-01T06:52:02.419Z,8588.00
2022-08-01T06:53:02.587Z,7936.00
2022-08-01T06:54:02.822Z,9508.00
2022-08-01T06:55:03.040Z,8660.00
2022-08-01T06:56:03.272Z,5960.00
2022-08-01T06:57:03.486Z,3336.00
2022-08-01T06:58:03.709Z,2284.00
2022-08-01T06:59:03.929Z,2712.00
2022-08-01T07:00:04.144Z,3904.00
2022-08-01T07:01:04.389Z,4448.00
2022-08-01T07:02:04.955Z,4132.00
2022-08-01T07:03:04.781Z,3212.00
2022-08-01T07:04:05.003Z,3328.00
2022-08-01T07:05:05.220Z,4400.00
2022-08-01T07:06:05.435Z,7276.00
2022-08-01T07:07:05.660Z,10924.00
2022-08-01T07:08:05.903Z,13876.00
2022-08-01T07:09:09.687Z,13080.00
2022-08-01T07:10:07.283Z,12424.00
2022-08-01T07:11:06.493Z,11324.00
2022-08-01T07:12:07.031Z,10456.00
2022-08-01T07:13:06.922Z,9340.00
2022-08-01T07:14:07.128Z,9692.00
2022-08-01T07:15:07.351Z,11244.00
2022-08-01T07:16:07.561Z,7780.00
2022-08-01T07:17:07.770Z,5736.00
2022-08-01T07:18:08.891Z,4536.00
2022-08-01T07:19:08.212Z,3576.00
2022-08-01T07:20:08.419Z,3340.00
2022-08-01T07:21:38.850Z,3660.00
2022-08-01T07:22:09.879Z,3860.00
2022-08-01T07:23:09.091Z,4172.00
2022-08-01T07:24:12.915Z,3356.00
2022-08-01T07:25:09.478Z,4148.00
2022-08-01T07:26:09.692Z,3436.00
2022-08-01T07:27:21.275Z,3144.00
2022-08-01T07:28:11.082Z,3816.00
2022-08-01T07:29:10.294Z,4904.00
2022-08-01T07:30:10.514Z,5784.00
2022-08-01T07:31:10.741Z,6460.00
2022-08-01T07:32:10.952Z,6836.00
2022-08-01T07:33:11.186Z,9128.00
2022-08-01T07:34:11.404Z,11840.00
2022-08-01T07:35:11.619Z,13048.00
2022-08-01T07:36:11.839Z,13016.00
2022-08-01T07:37:12.057Z,13792.00
2022-08-01T07:38:12.881Z,16256.00
2022-08-01T07:39:12.477Z,20416.00
2022-08-01T07:40:12.692Z,14272.00
2022-08-01T07:41:12.910Z,11808.00
2022-08-01T07:42:13.416Z,9500.00
2022-08-01T07:43:13.305Z,7200.00
2022-08-01T07:44:13.504Z,5496.00
2022-08-01T07:45:13.717Z,4304.00
2022-08-01T07:46:13.919Z,3684.00
2022-08-01T07:47:14.131Z,3920.00
2022-08-01T07:48:14.343Z,4532.00
2022-08-01T07:49:14.612Z,4824.00
2022-08-01T07:50:14.698Z,4644.00
2022-08-01T07:51:14.919Z,4000.00
2022-08-01T07:52:15.588Z,3328.00
2022-08-01T07:53:15.380Z,2784.00
2022-08-01T07:54:15.588Z,2484.00
2022-08-01T07:55:16.549Z,2580.00
2022-08-01T07:56:16.029Z,2936.00
2022-08-01T07:57:16.233Z,4004.00
2022-08-01T07:58:16.459Z,7220.00
2022-08-01T07:59:24.001Z,7916.00
2022-08-01T08:00:17.831Z,7048.00
2022-08-01T08:01:17.132Z,5248.00
2022-08-01T08:02:17.337Z,4520.00
2022-08-01T08:03:17.461Z,4304.00
2022-08-01T08:04:17.669Z,4112.00
2022-08-01T08:05:58.074Z,4328.00
2022-08-01T08:06:19.055Z,4504.00
2022-08-01T08:07:18.259Z,4756.00
2022-08-01T08:08:18.484Z,4572.00
2022-08-01T08:09:18.690Z,3984.00
2022-08-01T08:10:18.908Z,3320.00
2022-08-01T08:11:19.128Z,2712.00
2022-08-01T08:12:28.717Z,2452.00
2022-08-01T08:13:20.871Z,2580.00
2022-08-01T08:14:19.677Z,2916.00
2022-08-01T08:15:19.895Z,2884.00
2022-08-01T08:16:20.128Z,2564.00
2022-08-01T08:17:20.360Z,2428.00
2022-08-01T08:18:20.580Z,2368.00
2022-08-01T08:19:20.790Z,2496.00
2022-08-01T08:20:22.094Z,2632.00
2022-08-01T08:21:21.279Z,3000.00
2022-08-01T08:22:21.483Z,3452.00
2022-08-01T08:23:26.491Z,4268.00
2022-08-01T08:24:26.538Z,4352.00
2022-08-01T08:25:22.126Z,4744.00
2022-08-01T08:26:22.354Z,5472.00
2022-08-01T08:27:22.563Z,5428.00
2022-08-01T08:28:28.216Z,6144.00
2022-08-01T08:29:22.968Z,8388.00
2022-08-01T08:30:23.210Z,12892.00
2022-08-01T08:31:25.165Z,20256.00
2022-08-01T08:32:23.627Z,47872.00
2022-08-01T08:33:23.847Z,42016.00
2022-08-01T08:34:24.067Z,41280.00
2022-08-01T08:35:53.925Z,61184.00
2022-08-01T08:36:30.928Z,14956.00
2022-08-01T08:37:25.696Z,9832.00
2022-08-01T08:38:28.426Z,9488.00
2022-08-01T08:39:25.193Z,12860.00
2022-08-01T08:40:25.398Z,22048.00
2022-08-01T08:41:25.609Z,20672.00
2022-08-01T08:42:25.805Z,21664.00
2022-08-01T08:43:25.990Z,18048.00
2022-08-01T08:44:26.209Z,14064.00
2022-08-01T08:45:29.697Z,23392.00
2022-08-01T08:46:28.263Z,12600.00
2022-08-01T08:47:26.739Z,10340.00
2022-08-01T08:48:27.743Z,9808.00
2022-08-01T08:49:27.195Z,10404.00
2022-08-01T08:50:28.298Z,11960.00
2022-08-01T08:51:27.491Z,13808.00
2022-08-01T08:52:27.675Z,14916.00
2022-08-01T08:53:34.626Z,16064.00
2022-08-01T08:54:31.598Z,16608.00
2022-08-01T08:55:28.228Z,16800.00
2022-08-01T08:56:28.409Z,18656.00
2022-08-01T08:57:28.595Z,21344.00
2022-08-01T08:58:31.388Z,16000.00
2022-08-01T08:59:28.920Z,12424.00
2022-08-01T09:00:29.119Z,11352.00
2022-08-01T09:01:29.301Z,10280.00
2022-08-01T09:02:29.488Z,7280.00
2022-08-01T09:03:29.727Z,5464.00
2022-08-01T09:04:29.916Z,4568.00
2022-08-01T09:05:38.800Z,3868.00
2022-08-01T09:06:31.120Z,3592.00
2022-08-01T09:07:30.311Z,3420.00
2022-08-01T09:08:30.500Z,3548.00
2022-08-01T09:09:30.697Z,3696.00
2022-08-01T09:10:30.863Z,4196.00
2022-08-01T09:11:31.063Z,4012.00
2022-08-01T09:12:31.269Z,3952.00
2022-08-01T09:13:31.470Z,4100.00
2022-08-01T09:14:31.669Z,4932.00
2022-08-01T09:15:33.885Z,6156.00
2022-08-01T09:16:32.090Z,7104.00
2022-08-01T09:17:32.286Z,7292.00
2022-08-01T09:18:32.515Z,8816.00
2022-08-01T09:19:39.471Z,9144.00
2022-08-01T09:20:33.900Z,9176.00
2022-08-01T09:21:33.098Z,8948.00
2022-08-01T09:22:33.308Z,8944.00
2022-08-01T09:23:33.520Z,9056.00
2022-08-01T09:24:33.731Z,9056.00
2022-08-01T09:25:43.715Z,8660.00
2022-08-01T09:26:35.138Z,8384.00
2022-08-01T09:27:34.339Z,7620.00
2022-08-01T09:28:34.598Z,7388.00
2022-08-01T09:29:38.379Z,8184.00
2022-08-01T09:30:36.007Z,8948.00
2022-08-01T09:31:38.489Z,7908.00
2022-08-01T09:32:36.452Z,7868.00
2022-08-01T09:33:37.070Z,8804.00
2022-08-01T09:34:35.914Z,9064.00
2022-08-01T09:35:43.878Z,10800.00
2022-08-01T09:36:37.296Z,12352.00
2022-08-01T09:37:37.292Z,13140.00
2022-08-01T09:38:36.629Z,12976.00
2022-08-01T09:39:36.833Z,12504.00
2022-08-01T09:40:37.060Z,12080.00
2022-08-01T09:41:37.997Z,10348.00
2022-08-01T09:42:37.522Z,9920.00
2022-08-01T09:43:37.740Z,9248.00
2022-08-01T09:44:42.180Z,8048.00
2022-08-01T09:45:40.977Z,7324.00
2022-08-01T09:46:38.317Z,6628.00
2022-08-01T09:47:38.818Z,6708.00
2022-08-01T09:48:38.769Z,6820.00
2022-08-01T09:49:52.004Z,6344.00
2022-08-01T09:50:40.239Z,5600.00
2022-08-01T09:52:00.068Z,6084.00
2022-08-01T09:52:41.167Z,6268.00
2022-08-01T09:53:39.794Z,6448.00
2022-08-01T09:54:39.949Z,6632.00
2022-08-01T09:55:40.144Z,6616.00
2022-08-01T09:56:40.348Z,6568.00
2022-08-01T09:57:40.544Z,6812.00
2022-08-01T09:58:40.760Z,6868.00
2022-08-01T09:59:57.418Z,6744.00
2022-08-01T10:00:45.586Z,6256.00
2022-08-01T10:01:41.280Z,5828.00
2022-08-01T10:02:41.464Z,5752.00
2022-08-01T10:03:41.696Z,5540.00
2022-08-01T10:04:41.810Z,4952.00
2022-08-01T10:05:42.010Z,5392.00
2022-08-01T10:06:42.242Z,4796.00
2022-08-01T10:07:43.851Z,4732.00
2022-08-01T10:08:42.678Z,5580.00
2022-08-01T10:09:42.869Z,6224.00
2022-08-01T10:10:43.080Z,6540.00
2022-08-01T10:11:43.274Z,7272.00
2022-08-01T10:12:45.856Z,6764.00
2022-08-01T10:13:43.621Z,6948.00
2022-08-01T10:14:50.802Z,6836.00
2022-08-01T10:15:44.077Z,7320.00
2022-08-01T10:16:44.325Z,7360.00
2022-08-01T10:17:50.632Z,7188.00
2022-08-01T10:18:45.708Z,6432.00
2022-08-01T10:19:44.931Z,6072.00
2022-08-01T10:20:45.136Z,6460.00
2022-08-01T10:21:57.656Z,6796.00
2022-08-01T10:22:46.540Z,6776.00
2022-08-01T10:23:45.746Z,6608.00
2022-08-01T10:24:45.968Z,6640.00
2022-08-01T10:25:47.031Z,6772.00
2022-08-01T10:26:46.368Z,7076.00
2022-08-01T10:27:46.580Z,7340.00
2022-08-01T10:28:46.771Z,7392.00
2022-08-01T10:30:05.468Z,7120.00
2022-08-01T10:30:48.603Z,7536.00
2022-08-01T10:31:50.547Z,7360.00
2022-08-01T10:32:50.513Z,7972.00
2022-08-01T10:33:52.680Z,8340.00
2022-08-01T10:34:49.140Z,9240.00
2022-08-01T10:35:48.424Z,10300.00
2022-08-01T10:36:48.620Z,10904.00
2022-08-01T10:37:51.962Z,10700.00
2022-08-01T10:38:48.988Z,9644.00
2022-08-01T10:39:49.178Z,9444.00
2022-08-01T10:40:49.380Z,8688.00
2022-08-01T10:41:49.600Z,7528.00
2022-08-01T10:42:49.817Z,7592.00
2022-08-01T10:43:50.022Z,7592.00
2022-08-01T10:44:50.231Z,7412.00
2022-08-01T10:45:50.445Z,8200.00
2022-08-01T10:46:50.670Z,8488.00
2022-08-01T10:47:51.406Z,8164.00
2022-08-01T10:48:52.126Z,8132.00
2022-08-01T10:49:51.289Z,7848.00
2022-08-01T10:50:51.499Z,7672.00
2022-08-01T10:51:54.717Z,8136.00
2022-08-01T10:52:51.888Z,8808.00
2022-08-01T10:53:54.264Z,8676.00
2022-08-01T10:54:53.064Z,8680.00
2022-08-01T10:55:52.419Z,8196.00
2022-08-01T10:56:52.652Z,8164.00
2022-08-01T10:57:53.284Z,8160.00
2022-08-01T10:58:53.046Z,7484.00
2022-08-01T11:00:00.896Z,6900.00
2022-08-01T11:00:54.525Z,6368.00
2022-08-01T11:01:53.795Z,5844.00
2022-08-01T11:02:53.999Z,5844.00
2022-08-01T11:03:58.372Z,6280.00
2022-08-01T11:04:55.380Z,6512.00
2022-08-01T11:05:57.539Z,7368.00
2022-08-01T11:06:54.808Z,7692.00
2022-08-01T11:07:55.007Z,8064.00
2022-08-01T11:08:55.208Z,9112.00
2022-08-01T11:09:55.419Z,8940.00
2022-08-01T11:10:55.628Z,11224.00
2022-08-01T11:11:55.850Z,14248.00
2022-08-01T11:12:56.039Z,15328.00
2022-08-01T11:13:56.249Z,15872.00
2022-08-01T11:14:56.498Z,14488.00
2022-08-01T11:15:56.685Z,14052.00
2022-08-01T11:16:57.849Z,13052.00
2022-08-01T11:17:57.045Z,11692.00
2022-08-01T11:18:57.242Z,10932.00
2022-08-01T11:19:57.445Z,9940.00
2022-08-01T11:21:57.472Z,9096.00
2022-08-01T11:22:01.343Z,7888.00
2022-08-01T11:22:58.019Z,6032.00
2022-08-01T11:23:58.239Z,5264.00
2022-08-01T11:24:58.421Z,5088.00
2022-08-01T11:26:06.409Z,4348.00
2022-08-01T11:26:59.769Z,3972.00
2022-08-01T11:27:58.988Z,3692.00
2022-08-01T11:29:18.293Z,3308.00
2022-08-01T11:30:00.350Z,3404.00
2022-08-01T11:30:59.636Z,3720.00
2022-08-01T11:31:59.848Z,4124.00
2022-08-01T11:33:10.828Z,4244.00
2022-08-01T11:34:03.523Z,4400.00
2022-08-01T11:35:00.488Z,4320.00
2022-08-01T11:36:00.731Z,4164.00
2022-08-01T11:37:00.956Z,4016.00
2022-08-01T11:38:01.134Z,4032.00
2022-08-01T11:39:01.563Z,4112.00
2022-08-01T11:40:01.589Z,4200.00
2022-08-01T11:41:01.795Z,4468.00
2022-08-01T11:42:02.017Z,4792.00
2022-08-01T11:43:02.236Z,5096.00
2022-08-01T11:44:02.463Z,5428.00
2022-08-01T11:45:02.679Z,5740.00
2022-08-01T11:46:02.889Z,6052.00
2022-08-01T11:47:08.802Z,6436.00
2022-08-01T11:48:04.290Z,6912.00
2022-08-01T11:49:03.537Z,7648.00
2022-08-01T11:50:03.676Z,8588.00
2022-08-01T11:51:03.896Z,9772.00
2022-08-01T11:52:04.436Z,10868.00
2022-08-01T11:53:04.380Z,11252.00
2022-08-01T11:54:04.590Z,11432.00
2022-08-01T11:55:04.798Z,11864.00
2022-08-01T11:56:05.957Z,12224.00
2022-08-01T11:57:05.655Z,12388.00
2022-08-01T11:58:05.429Z,12616.00
2022-08-01T11:59:05.636Z,13020.00
2022-08-01T12:00:08.601Z,13836.00
2022-08-01T12:01:05.998Z,14880.00
2022-08-01T12:02:06.484Z,15392.00
2022-08-01T12:03:06.524Z,14268.00
2022-08-01T12:04:06.750Z,13248.00
2022-08-01T12:05:08.301Z,13436.00
2022-08-01T12:06:07.106Z,14388.00
2022-08-01T12:07:07.785Z,16288.00
2022-08-01T12:08:07.580Z,17856.00
2022-08-01T12:09:11.805Z,18688.00
2022-08-01T12:10:07.970Z,18592.00
2022-08-01T12:11:08.169Z,18656.00
2022-08-01T12:12:08.389Z,18304.00
2022-08-01T12:13:09.440Z,16960.00
2022-08-01T12:14:08.821Z,16576.00
2022-08-01T12:15:09.983Z,16512.00
2022-08-01T12:16:09.240Z,16256.00
2022-08-01T12:17:09.522Z,16128.00
2022-08-01T12:18:09.617Z,16000.00
2022-08-01T12:19:09.840Z,15680.00
2022-08-01T12:20:10.112Z,14896.00
2022-08-01T12:21:10.189Z,14360.00
2022-08-01T12:22:10.395Z,14184.00
2022-08-01T12:23:10.582Z,14408.00
2022-08-01T12:24:10.765Z,14916.00
2022-08-01T12:25:10.959Z,15744.00
2022-08-01T12:26:28.648Z,16352.00